createdAt,value
2019-04-11T00:00:09.053Z,47.60
2019-04-11T00:05:17.358Z,46.54
2019-04-11T00:10:26.493Z,37.90
2019-04-11T00:15:36.722Z,46.82
2019-04-11T00:20:44.444Z,50.55
2019-04-11T00:25:53.777Z,49.11
2019-04-11T00:31:02.806Z,37.84
2019-04-11T00:36:12.397Z,47.14
2019-04-11T00:41:21.728Z,37.98
2019-04-11T00:46:29.293Z,47.57
2019-04-11T00:51:38.413Z,49.55
2019-04-11T00:56:48.436Z,49.01
2019-04-11T01:01:56.874Z,49.12
2019-04-11T01:07:05.018Z,48.77
2019-04-11T01:12:14.362Z,38.10
2019-04-11T01:17:23.366Z,46.95
2019-04-11T01:22:32.363Z,37.84
2019-04-11T01:27:42.542Z,47.41
2019-04-11T01:32:50.648Z,50.38
2019-04-11T01:37:59.869Z,38.38
2019-04-11T01:43:08.090Z,47.41
2019-04-11T01:48:16.455Z,50.26
2019-04-11T01:53:24.796Z,47.79
2019-04-11T01:58:34.858Z,47.27
2019-04-11T02:03:43.441Z,45.95
2019-04-11T02:08:51.426Z,46.25
2019-04-11T02:14:10.428Z,38.14
2019-04-11T02:19:10.152Z,38.72
2019-04-11T02:24:17.641Z,47.69
2019-04-11T02:29:27.693Z,50.19
2019-04-11T02:34:36.987Z,48.46
2019-04-11T02:39:44.481Z,47.22
2019-04-11T02:45:03.343Z,46.44
2019-04-11T02:50:03.494Z,46.94
2019-04-11T02:55:12.041Z,46.54
2019-04-11T03:00:20.363Z,44.95
2019-04-11T03:05:28.885Z,45.99
2019-04-11T03:10:37.808Z,46.19
2019-04-11T03:15:56.926Z,45.37
2019-04-11T03:20:57.717Z,42.71
2019-04-11T03:26:03.281Z,46.42
2019-04-11T03:31:33.191Z,45.19
2019-04-11T03:37:06.758Z,42.49
2019-04-11T03:41:48.962Z,41.37
2019-04-11T03:46:51.138Z,41.86
2019-04-11T03:51:47.975Z,39.99
2019-04-11T03:56:57.230Z,41.39
2019-04-11T04:02:05.760Z,41.14
2019-04-11T04:07:14.899Z,41.16
2019-04-11T04:12:22.742Z,44.66
2019-04-11T04:17:30.910Z,43.01
2019-04-11T04:22:39.683Z,47.23
2019-04-11T04:27:49.117Z,48.90
2019-04-11T04:32:56.897Z,45.91
2019-04-11T04:38:05.295Z,46.47
2019-04-11T04:43:14.666Z,38.47
2019-04-11T04:48:26.588Z,47.72
2019-04-11T04:53:33.171Z,49.10
2019-04-11T04:58:41.996Z,45.30
2019-04-11T05:03:50.871Z,46.74
2019-04-11T05:08:58.188Z,46.12
2019-04-11T05:14:07.199Z,45.88
2019-04-11T05:19:15.170Z,45.97
2019-04-11T05:24:24.273Z,46.31
2019-04-11T05:29:33.593Z,38.85
2019-04-11T05:34:43.507Z,48.37
2019-04-11T05:39:52.457Z,50.26
2019-04-11T05:45:00.023Z,38.96
2019-04-11T05:50:12.002Z,39.77
2019-04-11T05:55:17.753Z,48.18
2019-04-11T06:00:26.894Z,48.17
2019-04-11T06:05:37.540Z,39.84
2019-04-11T06:10:45.402Z,49.60
2019-04-11T06:15:53.783Z,47.45
2019-04-11T06:21:03.934Z,45.96
2019-04-11T06:26:11.568Z,45.75
2019-04-11T06:31:20.661Z,46.27
2019-04-11T06:36:30.125Z,46.01
2019-04-11T06:41:38.868Z,45.28
2019-04-11T06:46:53.898Z,45.86
2019-04-11T06:51:56.783Z,46.46
2019-04-11T06:57:05.525Z,40.39
2019-04-11T07:02:18.882Z,48.96
2019-04-11T07:07:22.708Z,41.12
2019-04-11T07:12:31.026Z,49.46
2019-04-11T07:17:40.455Z,47.00
2019-04-11T07:22:49.411Z,40.53
2019-04-11T07:27:59.408Z,48.60
2019-04-11T07:33:08.005Z,46.39
2019-04-11T07:38:16.288Z,45.61
2019-04-11T07:43:25.362Z,45.79
2019-04-11T07:48:34.467Z,45.86
2019-04-11T07:53:43.792Z,40.44
2019-04-11T07:58:52.777Z,49.63
2019-04-11T08:04:01.911Z,39.98
2019-04-11T08:09:11.154Z,49.76
2019-04-11T08:14:20.316Z,46.93
2019-04-11T08:19:29.550Z,46.52
2019-04-11T08:24:38.666Z,39.58
2019-04-11T08:29:50.004Z,48.91
2019-04-11T08:34:56.587Z,46.86
2019-04-11T08:40:05.877Z,45.73
2019-04-11T08:45:14.936Z,45.54
2019-04-11T08:50:26.179Z,39.59
2019-04-11T08:55:24.155Z,47.90
2019-04-11T09:00:34.577Z,47.02
2019-04-11T09:05:42.874Z,42.39
2019-04-11T09:10:51.035Z,46.30
2019-04-11T09:16:01.335Z,44.67
2019-04-11T09:21:09.789Z,46.26
2019-04-11T09:26:18.039Z,44.08
2019-04-11T09:31:27.487Z,45.13
2019-04-11T09:36:34.991Z,40.42
2019-04-11T09:41:46.848Z,48.38
2019-04-11T09:46:46.180Z,48.47
2019-04-11T09:51:58.321Z,40.71
2019-04-11T09:56:56.073Z,48.68
2019-04-11T10:02:05.892Z,47.94
2019-04-11T10:07:15.752Z,45.95
2019-04-11T10:12:22.130Z,45.36
2019-04-11T10:17:26.008Z,45.44
2019-04-11T10:22:28.874Z,42.29
2019-04-11T10:27:26.763Z,43.91
2019-04-11T10:32:36.097Z,40.63
2019-04-11T10:37:50.248Z,40.47
2019-04-11T10:42:49.557Z,43.51
2019-04-11T10:47:59.245Z,43.72
2019-04-11T10:53:08.933Z,55.54
2019-04-11T10:58:20.595Z,46.08
2019-04-11T11:03:18.690Z,41.09
2019-04-11T11:08:29.055Z,40.26
2019-04-11T11:13:39.062Z,40.18
2019-04-11T11:18:48.151Z,39.94
2019-04-11T11:23:45.338Z,38.81
2019-04-11T11:28:56.770Z,40.27
2019-04-11T11:34:03.303Z,37.35
2019-04-11T11:39:13.053Z,43.26
2019-04-11T11:44:22.373Z,46.42
2019-04-11T11:49:44.830Z,43.10
2019-04-11T11:54:39.713Z,40.57
2019-04-11T11:59:48.287Z,40.43
2019-04-11T12:04:57.076Z,38.00
2019-04-11T12:09:56.208Z,45.58
2019-04-11T12:15:05.576Z,44.21
2019-04-11T12:20:16.401Z,36.92
2019-04-11T12:25:25.732Z,39.55
2019-04-11T12:30:29.098Z,32.54
2019-04-11T12:35:33.466Z,36.20
2019-04-11T12:40:42.603Z,34.90
2019-04-11T12:45:51.932Z,33.60
2019-04-11T12:51:01.059Z,49.94
2019-04-11T12:56:10.313Z,29.25
2019-04-11T13:01:19.393Z,29.88
2019-04-11T13:06:35.261Z,29.25
2019-04-11T13:11:37.386Z,28.74
2019-04-11T13:16:46.586Z,28.76
2019-04-11T13:21:55.664Z,28.56
2019-04-11T13:27:05.184Z,34.04
2019-04-11T13:32:14.340Z,29.36
2019-04-11T13:37:23.545Z,30.40
2019-04-11T13:42:32.670Z,32.79
2019-04-11T13:47:42.011Z,36.06
2019-04-11T13:52:51.097Z,28.66
2019-04-11T13:58:00.270Z,37.65
2019-04-11T14:03:09.412Z,93.88
2019-04-11T14:08:18.602Z,31.63
2019-04-11T14:13:27.702Z,103.86
2019-04-11T14:18:36.889Z,40.63
2019-04-11T14:23:45.981Z,60.76
2019-04-11T14:28:55.135Z,30.43
2019-04-11T14:34:04.261Z,47.68
2019-04-11T14:39:13.480Z,48.13
2019-04-11T14:44:22.620Z,67.19
2019-04-11T14:49:34.274Z,8.36
2019-04-11T14:54:34.240Z,33.16
2019-04-11T14:59:43.416Z,73.70
2019-04-11T15:04:52.655Z,5.90
2019-04-11T15:10:01.850Z,147.06
2019-04-11T15:15:10.970Z,986.44
2019-04-11T15:20:20.237Z,999.90
2019-04-11T15:25:29.386Z,999.90
2019-04-11T15:30:38.576Z,999.90
2019-04-11T15:35:47.774Z,904.85
2019-04-11T15:40:56.928Z,994.01
2019-04-11T15:46:06.057Z,821.13
2019-04-11T15:51:15.309Z,401.31
2019-04-11T15:56:25.476Z,151.10
2019-04-11T16:01:26.299Z,80.43
2019-04-11T16:06:25.402Z,308.26
2019-04-11T16:11:34.603Z,324.53
2019-04-11T16:16:43.726Z,376.72
2019-04-11T16:21:54.894Z,460.45
2019-04-11T16:27:01.635Z,497.63
2019-04-11T16:32:11.846Z,379.97
2019-04-11T16:37:11.920Z,47.25
2019-04-11T16:42:21.860Z,16.21
2019-04-11T16:47:28.813Z,9.27
2019-04-11T16:52:38.594Z,9.07
2019-04-11T16:57:46.747Z,8.12
2019-04-11T17:02:56.103Z,7.72
2019-04-11T17:08:05.458Z,8.00
2019-04-11T17:13:15.144Z,7.76
2019-04-11T17:18:26.717Z,8.04
2019-04-11T17:23:27.166Z,8.45
2019-04-11T17:28:26.307Z,8.00
2019-04-11T17:33:35.700Z,8.05
2019-04-11T17:38:47.270Z,7.95
2019-04-11T17:43:51.516Z,7.80
2019-04-11T17:48:46.962Z,7.55
2019-04-11T17:53:56.254Z,7.78
2019-04-11T17:59:05.383Z,8.70
2019-04-11T18:04:14.607Z,8.67
2019-04-11T18:09:25.810Z,7.73
2019-04-11T18:14:35.592Z,6.44
2019-04-11T18:19:36.254Z,7.74
2019-04-11T18:24:44.355Z,7.05
2019-04-11T18:29:44.236Z,7.73
2019-04-11T18:34:53.548Z,7.12
2019-04-11T18:40:06.338Z,6.53
2019-04-11T18:45:11.656Z,7.31
2019-04-11T18:50:22.957Z,7.34
2019-04-11T18:55:29.671Z,8.17
2019-04-11T19:00:39.034Z,7.48
2019-04-11T19:05:48.118Z,7.30
2019-04-11T19:10:59.791Z,7.73
2019-04-11T19:15:58.932Z,7.61
2019-04-11T19:21:07.777Z,8.92
2019-04-11T19:26:17.032Z,8.07
2019-04-11T19:31:28.199Z,7.76
2019-04-11T19:36:36.624Z,8.32
2019-04-11T19:41:35.732Z,8.89
2019-04-11T19:46:50.965Z,10.87
2019-04-11T19:51:50.869Z,7.03
2019-04-11T19:56:57.799Z,8.16
2019-04-11T20:02:07.527Z,7.23
2019-04-11T20:07:16.903Z,7.30
2019-04-11T20:12:27.768Z,6.82
2019-04-11T20:17:44.658Z,6.67
2019-04-11T20:22:40.518Z,7.11
2019-04-11T20:27:50.773Z,6.88
2019-04-11T20:32:58.001Z,7.19
2019-04-11T20:38:07.210Z,6.92
2019-04-11T20:43:16.354Z,6.59
2019-04-11T20:48:25.537Z,7.60
2019-04-11T20:53:36.807Z,7.85
2019-04-11T20:58:42.217Z,7.78
2019-04-11T21:03:51.361Z,7.52
2019-04-11T21:09:02.826Z,7.09
2019-04-11T21:14:09.237Z,7.53
2019-04-11T21:19:18.444Z,7.34
2019-04-11T21:24:30.490Z,8.72
2019-04-11T21:29:36.566Z,7.32
2019-04-11T21:34:45.695Z,8.10
2019-04-11T21:39:54.873Z,8.40
2019-04-11T21:45:06.234Z,8.44
2019-04-11T21:50:12.776Z,7.82
2019-04-11T21:55:21.930Z,8.01
2019-04-11T22:00:31.318Z,7.78
2019-04-11T22:05:40.436Z,6.90
2019-04-11T22:10:49.630Z,8.00
2019-04-11T22:15:58.730Z,7.59
2019-04-11T22:21:07.897Z,9.22
2019-04-11T22:26:17.075Z,7.20
2019-04-11T22:31:26.382Z,8.69
2019-04-11T22:36:35.459Z,7.64
2019-04-11T22:41:44.626Z,8.78
2019-04-11T22:46:53.760Z,8.49
2019-04-11T22:52:02.954Z,8.84
2019-04-11T22:57:12.808Z,9.10
2019-04-11T23:02:21.026Z,8.69
2019-04-11T23:07:30.147Z,9.16
2019-04-11T23:12:39.353Z,9.25
2019-04-11T23:17:48.452Z,8.24
2019-04-11T23:22:57.607Z,9.26
2019-04-11T23:28:06.751Z,9.17
2019-04-11T23:33:15.930Z,9.68
2019-04-11T23:38:25.068Z,8.49
2019-04-11T23:43:34.331Z,9.63
2019-04-11T23:48:43.460Z,8.74
2019-04-11T23:53:52.618Z,8.72
2019-04-11T23:59:04.316Z,9.20
